Fjordprinsessen — LJVE — position and weather

sailwx.info

Track history (hours):
 
Tides and Currents Weather Stations Pressure Air Temp Water Temp Dewpoint Dewpoint Depression Visibility Wind Speed Wind Dir Waves Ship Positions

Fjordprinsessen

Last reported at 2017-Apr-25 00:28 UTC. Time now 2017-Apr-25 00:47 UTC.
Position N 67°17' E 014°22'.

Length 30 m.

Type: High speed craft. MMSI: 259604000.

Date/timePositionNaut miles runAvg speedWind from/ knotsBaromVisibWave heightAir tempDewpointWater temp
2017-Apr-25 00:28N 67°17' E 014°22'0 0.0
2017-Apr-24 23:58N 67°17' E 014°22'0 0.0
2017-Apr-24 23:28N 67°17' E 014°22'0 0.0
2017-Apr-24 22:58N 67°17' E 014°22'0 0.0
2017-Apr-24 22:28N 67°17' E 014°22'0 0.0
2017-Apr-24 21:58N 67°17' E 014°22'0 0.0
2017-Apr-24 21:28N 67°17' E 014°22'0 0.0
2017-Apr-24 20:58N 67°17' E 014°22'0 0.0
2017-Apr-24 20:28N 67°17' E 014°22'0 0.0
2017-Apr-24 19:58N 67°17' E 014°22'0 0.0
2017-Apr-24 19:28N 67°17' E 014°22'0 0.0
2017-Apr-24 18:58N 67°17' E 014°22'0 0.0
2017-Apr-24 18:28N 67°17' E 014°22'0 0.0
2017-Apr-24 17:58N 67°17' E 014°22'0 0.0
2017-Apr-24 17:28N 67°17' E 014°22'0 0.0
2017-Apr-24 16:58N 67°17' E 014°22'0 0.5
2017-Apr-24 16:30N 67°17' E 014°23'712.7
2017-Apr-24 15:59N 67°23' E 014°13'1225.7
2017-Apr-24 15:31N 67°18' E 013°43'713.9
2017-Apr-24 14:59N 67°24' E 013°54'816.6
2017-Apr-24 14:30N 67°24' E 014°14'7 7.2
2017-Apr-24 13:30N 67°17' E 014°22'0 0.0
2017-Apr-24 13:00N 67°17' E 014°22'0 0.0
2017-Apr-24 12:30N 67°17' E 014°22'0 0.0
2017-Apr-24 12:00N 67°17' E 014°22'0 0.0
2017-Apr-24 11:30N 67°17' E 014°22'0 0.0
2017-Apr-24 11:00N 67°17' E 014°22'0 0.9
2017-Apr-24 10:30N 67°17' E 014°23'0 0.9
2017-Apr-24 10:01N 67°17' E 014°22'1019.8
2017-Apr-24 09:31N 67°16' E 013°57'815.4
2017-Apr-24 09:00N 67°08' E 013°53'5 9.0
2017-Apr-24 08:31N 67°10' E 014°04'1020.1
2017-Apr-24 08:01N 67°17' E 014°22'0 0.0
2017-Apr-24 07:31N 67°17' E 014°22'0 0.0
2017-Apr-24 07:00N 67°17' E 014°22'0 0.0
2017-Apr-24 06:31N 67°17' E 014°22'0 0.0
2017-Apr-24 06:01N 67°17' E 014°22'0 0.0
2017-Apr-24 05:31N 67°17' E 014°22'0 0.0
2017-Apr-24 05:00N 67°17' E 014°22'918.0
2017-Apr-24 04:31N 67°24' E 014°09'6 0.7
2017-Apr-23 19:38N 67°24' E 013°54'319.7
2017-Apr-23 19:30N 67°25' E 014°01'1223.1
2017-Apr-23 19:00N 67°17' E 014°22'0 0.1
2017-Apr-23 18:30N 67°17' E 014°22'3 6.8
2017-Apr-23 18:01N 67°15' E 014°15'1223.1
2017-Apr-23 17:31N 67°06' E 013°56'1325.2
2017-Apr-23 17:01N 66°58' E 013°32'1111.0
2017-Apr-23 16:01N 66°48' E 013°20'231.4
2017-Apr-23 15:57N 66°48' E 013°15'716.4
2017-Apr-23 15:30N 66°41' E 013°16'1114.5
2017-Apr-23 14:44N 66°33' E 012°57'1214.5
2017-Apr-23 13:55N 66°21' E 012°51'1317.8
2017-Apr-23 13:11N 66°09' E 012°42'16 0.9
2017-Apr-22 18:28N 66°24' E 012°50'1618.9
2017-Apr-22 17:39N 66°39' E 013°02'516.5
2017-Apr-22 17:19N 66°41' E 013°15'1612.4
2017-Apr-22 16:04N 66°54' E 013°38'229.8
2017-Apr-22 15:59N 66°54' E 013°32'4 9.0
2017-Apr-22 15:30N 66°58' E 013°32'918.3
2017-Apr-22 15:00N 67°03' E 013°51'714.1
2017-Apr-22 14:31N 67°09' E 014°02'1111.4
2017-Apr-22 13:31N 67°17' E 014°22'0 0.0
2017-Apr-22 13:00N 67°17' E 014°22'0 0.0
2017-Apr-22 12:30N 67°17' E 014°22'0 0.0
2017-Apr-22 12:00N 67°17' E 014°22'0 0.0
2017-Apr-22 11:31N 67°17' E 014°22'0 0.0
2017-Apr-22 11:00N 67°17' E 014°22'0 0.0
2017-Apr-22 10:30N 67°17' E 014°22'0 0.0
2017-Apr-22 10:00N 67°17' E 014°22'0 0.1
2017-Apr-22 09:31N 67°17' E 014°22'713.0
2017-Apr-22 09:01N 67°22' E 014°13'816.2
2017-Apr-22 08:30N 67°23' E 013°51'5 9.4
2017-Apr-22 08:00N 67°18' E 013°52'917.2
2017-Apr-22 07:31N 67°17' E 014°14'2 4.9
2017-Apr-22 07:01N 67°15' E 014°14'918.4
2017-Apr-22 06:31N 67°08' E 013°58'4 8.9
2017-Apr-22 06:01N 67°11' E 013°51'1326.3
2017-Apr-22 05:30N 67°17' E 014°21'1 0.9
2017-Apr-22 04:58N 67°17' E 014°22'0 0.0
2017-Apr-22 04:28N 67°17' E 014°22'0 0.0
2017-Apr-22 03:58N 67°17' E 014°22'0 0.0
2017-Apr-22 03:28N 67°17' E 014°22'0 0.0
2017-Apr-22 02:58N 67°17' E 014°22'0 0.0
2017-Apr-22 02:31N 67°17' E 014°22'0 0.0
2017-Apr-22 02:01N 67°17' E 014°22'0 0.0
2017-Apr-22 01:31N 67°17' E 014°22'0 0.0
2017-Apr-22 01:00N 67°17' E 014°22'0 0.0
2017-Apr-22 00:30N 67°17' E 014°22'0 0.0
2017-Apr-22 00:00N 67°17' E 014°22'0 0.0
2017-Apr-21 23:30N 67°17' E 014°22'0 0.0
2017-Apr-21 23:00N 67°17' E 014°22'0 0.0
2017-Apr-21 22:30N 67°17' E 014°22'0 0.0
2017-Apr-21 22:00N 67°17' E 014°22'0 0.0
2017-Apr-21 21:30N 67°17' E 014°22'0 0.0
2017-Apr-21 21:00N 67°17' E 014°22'0 0.0
2017-Apr-21 20:30N 67°17' E 014°22'0 0.0
2017-Apr-21 20:00N 67°17' E 014°22'0 0.0
2017-Apr-21 19:30N 67°17' E 014°22'0 0.0
2017-Apr-21 19:00N 67°17' E 014°22'0 0.0
2017-Apr-21 18:30N 67°17' E 014°22'0 0.0
2017-Apr-21 18:00N 67°17' E 014°22'0 0.0
2017-Apr-21 17:30N 67°17' E 014°22'0 0.0
2017-Apr-21 17:00N 67°17' E 014°22'0 0.0
2017-Apr-21 16:30N 67°17' E 014°22'2 4.0
2017-Apr-21 16:01N 67°17' E 014°17'1325.8
2017-Apr-21 15:30N 67°19' E 013°44'712.6
2017-Apr-21 14:57N 67°24' E 013°54'614.7
2017-Apr-21 14:31N 67°24' E 014°11'9 8.5
2017-Apr-21 13:30N 67°17' E 014°22'0 0.0
2017-Apr-21 13:00N 67°17' E 014°22'713.4
2017-Apr-21 12:29N 67°23' E 014°15'816.7
2017-Apr-21 12:00N 67°24' E 013°54'713.2
2017-Apr-21 11:30N 67°24' E 014°11'817.0
2017-Apr-21 11:00N 67°17' E 014°22'0 0.0
2017-Apr-21 10:30N 67°17' E 014°22'0 0.0
2017-Apr-21 10:01N 67°17' E 014°22'0 0.0
2017-Apr-21 09:30N 67°17' E 014°22'0 0.0
2017-Apr-21 09:00N 67°17' E 014°22'0 0.0
2017-Apr-21 08:31N 67°17' E 014°22'0 0.0
2017-Apr-21 08:01N 67°17' E 014°22'0 0.0
2017-Apr-21 07:30N 67°17' E 014°22'0 0.0
2017-Apr-21 07:00N 67°17' E 014°22'0 0.0
2017-Apr-21 06:30N 67°17' E 014°22'0 0.0
2017-Apr-21 06:00N 67°17' E 014°22'0 0.0
2017-Apr-21 05:31N 67°17' E 014°22'1 1.6
2017-Apr-21 05:01N 67°17' E 014°21'1223.2
2017-Apr-21 04:30N 67°07' E 014°03'510.7
2017-Apr-21 04:01N 67°13' E 014°06'815.6
2017-Apr-21 03:30N 67°17' E 014°22'0 0.0
2017-Apr-21 03:00N 67°17' E 014°22'0 0.0
2017-Apr-21 02:30N 67°17' E 014°22'0 0.0
2017-Apr-21 02:00N 67°17' E 014°22'0 0.0
2017-Apr-21 01:30N 67°17' E 014°22'0 0.0
2017-Apr-21 01:00N 67°17' E 014°22'0 0.0
2017-Apr-21 00:30N 67°17' E 014°22'0 0.0
2017-Apr-21 00:00N 67°17' E 014°22'0 0.0
2017-Apr-20 23:30N 67°17' E 014°22'0 0.0
2017-Apr-20 23:00N 67°17' E 014°22'0 0.0
2017-Apr-20 22:30N 67°17' E 014°22'0 0.0
2017-Apr-20 22:00N 67°17' E 014°22'0 0.0
2017-Apr-20 21:30N 67°17' E 014°22'0 0.0
2017-Apr-20 21:00N 67°17' E 014°22'0 0.0
2017-Apr-20 20:30N 67°17' E 014°22'0 0.0
2017-Apr-20 20:00N 67°17' E 014°22'1121.9
2017-Apr-20 19:31N 67°12' E 013°58'4 7.4
2017-Apr-20 19:00N 67°09' E 013°52'4 7.8
2017-Apr-20 18:30N 67°09' E 014°02'1223.1
2017-Apr-20 18:01N 67°17' E 014°22'0 0.1
2017-Apr-20 17:31N 67°17' E 014°22'0 0.0
2017-Apr-20 17:00N 67°17' E 014°22'0 0.0
2017-Apr-20 16:30N 67°17' E 014°22'1 1.6
2017-Apr-20 16:01N 67°18' E 014°22'714.2
2017-Apr-20 15:30N 67°22' E 014°08'610.8
2017-Apr-20 14:58N 67°24' E 013°54'816.6
2017-Apr-20 14:30N 67°24' E 014°14'7 7.3
2017-Apr-20 13:30N 67°17' E 014°22'0 0.0
2017-Apr-20 13:01N 67°17' E 014°22'917.1
2017-Apr-20 12:29N 67°24' E 014°09'611.8
2017-Apr-20 12:00N 67°24' E 013°54'816.2
2017-Apr-20 11:30N 67°23' E 014°15'714.0
2017-Apr-20 11:01N 67°17' E 014°22'1 1.4
2017-Apr-20 10:31N 67°17' E 014°24'1 1.4
2017-Apr-20 10:01N 67°17' E 014°22'1224.2
2017-Apr-20 09:30N 67°11' E 013°55'4 7.5
2017-Apr-20 09:00N 67°08' E 013°58'4 8.4
2017-Apr-20 08:31N 67°12' E 014°04'917.9
2017-Apr-20 08:00N 67°17' E 014°22'0 0.0
2017-Apr-20 07:29N 67°17' E 014°22'0 0.0
2017-Apr-20 06:59N 67°17' E 014°22'0 0.0
2017-Apr-20 06:29N 67°17' E 014°22'0 0.0
2017-Apr-20 05:59N 67°17' E 014°22'0 0.0
2017-Apr-20 05:29N 67°17' E 014°22'0 0.1
2017-Apr-20 05:00N 67°17' E 014°22'1224.6
2017-Apr-20 04:30N 67°07' E 014°03'4 8.0
2017-Apr-20 04:00N 67°11' E 014°06'917.3
2017-Apr-20 03:30N 67°17' E 014°22'0 0.0
2017-Apr-20 03:00N 67°17' E 014°22'0 0.0
2017-Apr-20 02:30N 67°17' E 014°22'0 0.0
2017-Apr-20 02:00N 67°17' E 014°22'0 0.0
2017-Apr-20 01:30N 67°17' E 014°22'0 0.0
2017-Apr-20 01:00N 67°17' E 014°22'0 0.0
2017-Apr-20 00:30N 67°17' E 014°22'0 0.0
2017-Apr-20 00:00N 67°17' E 014°22'0 0.0
2017-Apr-19 23:30N 67°17' E 014°22'0 0.0
2017-Apr-19 23:00N 67°17' E 014°22'0 0.0
2017-Apr-19 22:30N 67°17' E 014°22'0 0.0
2017-Apr-19 22:00N 67°17' E 014°22'0 0.0
2017-Apr-19 21:30N 67°17' E 014°22'0 0.0
2017-Apr-19 21:00N 67°17' E 014°22'0 0.0
2017-Apr-19 20:30N 67°17' E 014°22'0 0.0
2017-Apr-19 20:00N 67°17' E 014°22'917.9
2017-Apr-19 19:31N 67°13' E 014°02'611.2
2017-Apr-19 19:00N 67°10' E 013°51'4 8.9
2017-Apr-19 18:30N 67°08' E 014°02'1224.3
2017-Apr-19 18:00N 67°17' E 014°22'0 0.0
2017-Apr-19 17:30N 67°17' E 014°22'0 0.0
2017-Apr-19 17:00N 67°17' E 014°22'0 0.0
2017-Apr-19 16:30N 67°17' E 014°22'713.3
2017-Apr-19 16:01N 67°22' E 014°11'1122.2
2017-Apr-19 15:30N 67°18' E 013°43'714.6
2017-Apr-19 15:00N 67°24' E 013°54'713.0
2017-Apr-19 14:30N 67°24' E 014°11'8 8.4
2017-Apr-19 13:30N 67°17' E 014°22'0 0.9
2017-Apr-19 13:00N 67°17' E 014°23'0 0.9
2017-Apr-19 12:30N 67°17' E 014°22'0 0.0
2017-Apr-19 12:00N 67°17' E 014°22'0 0.0
2017-Apr-19 06:46N 67°17' E 014°22'0 0.0
2017-Apr-19 06:30N 67°17' E 014°22'0 0.0
2017-Apr-19 06:00N 67°17' E 014°22'0 0.0
2017-Apr-19 05:30N 67°17' E 014°22'1 1.4
2017-Apr-19 05:01N 67°17' E 014°21'1223.4
2017-Apr-19 04:31N 67°07' E 014°03'4 7.6
2017-Apr-19 04:00N 67°11' E 014°05'917.5
2017-Apr-19 03:30N 67°17' E 014°22'0 0.0
2017-Apr-19 03:00N 67°17' E 014°22'0 0.0
2017-Apr-19 02:30N 67°17' E 014°22'0 0.0
2017-Apr-19 02:00N 67°17' E 014°22'0 0.0
2017-Apr-19 01:30N 67°17' E 014°22'0 0.0
2017-Apr-19 01:00N 67°17' E 014°22'0 0.0
2017-Apr-19 00:30N 67°17' E 014°22'0 0.0
2017-Apr-19 00:00N 67°17' E 014°22'0 0.0
2017-Apr-18 23:30N 67°17' E 014°22'0 0.0
2017-Apr-18 23:00N 67°17' E 014°22'0 0.0
2017-Apr-18 22:30N 67°17' E 014°22'0 0.0
2017-Apr-18 22:00N 67°17' E 014°22'0 0.0
2017-Apr-18 21:30N 67°17' E 014°22'0 0.0
2017-Apr-18 21:00N 67°17' E 014°22'0 0.0
2017-Apr-18 20:30N 67°17' E 014°22'0 0.0
2017-Apr-18 19:59N 67°17' E 014°22'0 0.0
2017-Apr-18 19:29N 67°17' E 014°22'0 0.0
2017-Apr-18 18:59N 67°17' E 014°22'0 0.0
2017-Apr-18 18:29N 67°17' E 014°22'0 0.0
2017-Apr-18 17:59N 67°17' E 014°22'0 0.0
2017-Apr-18 17:29N 67°17' E 014°22'0 0.0
2017-Apr-18 16:59N 67°17' E 014°22'1 1.4
2017-Apr-18 16:29N 67°17' E 014°24'613.7
2017-Apr-18 16:00N 67°22' E 014°13'1018.4
2017-Apr-18 15:29N 67°19' E 013°49'6 8.4
2017-Apr-18 14:48N 67°24' E 013°54'621.0
2017-Apr-18 14:30N 67°24' E 014°10'9 8.6
2017-Apr-18 13:30N 67°17' E 014°22'0 0.8
2017-Apr-18 12:58N 67°17' E 014°23'0 0.9
2017-Apr-18 12:30N 67°17' E 014°22'0 0.0
2017-Apr-18 12:00N 67°17' E 014°22'0 0.0
2017-Apr-18 11:30N 67°17' E 014°22'0 0.0
2017-Apr-18 11:00N 67°17' E 014°22'0 0.0
2017-Apr-18 10:30N 67°17' E 014°22'0 0.0
2017-Apr-18 10:00N 67°17' E 014°22'0 0.0
2017-Apr-18 09:30N 67°17' E 014°22'0 0.0
2017-Apr-18 09:00N 67°17' E 014°22'0 0.0
2017-Apr-18 08:30N 67°17' E 014°22'0 0.0
2017-Apr-18 08:00N 67°17' E 014°22'3 6.5
2017-Apr-18 07:31N 67°20' E 014°18'917.0
2017-Apr-18 07:01N 67°25' E 014°01'912.1
2017-Apr-18 06:14N 67°18' E 013°44'210.8
2017-Apr-18 06:01N 67°19' E 013°49'1018.9
2017-Apr-18 05:30N 67°23' E 014°13'713.7
2017-Apr-18 05:01N 67°17' E 014°22'1120.0
2017-Apr-18 04:28N 67°25' E 014°03'3 0.4
2017-Apr-17 20:01N 67°24' E 013°54'917.8
2017-Apr-17 19:31N 67°20' E 014°14'4 7.9
2017-Apr-17 19:01N 67°17' E 014°22'611.1
2017-Apr-17 18:31N 67°22' E 014°13'612.7
2017-Apr-17 18:01N 67°15' E 014°17'1224.7
2017-Apr-17 17:31N 67°06' E 013°56'1224.6
2017-Apr-17 17:00N 66°58' E 013°32'1111.0
2017-Apr-17 16:00N 66°48' E 013°20'713.7
2017-Apr-17 15:29N 66°41' E 013°16'715.1
2017-Apr-17 15:00N 66°38' E 012°60'1515.0
2017-Apr-17 14:00N 66°24' E 012°49'1222.1
2017-Apr-17 13:27N 66°12' E 013°00'8 4.2
2017-Apr-17 11:29N 66°07' E 012°45'1531.6
2017-Apr-17 11:00N 66°21' E 012°57'3430.5
2017-Apr-17 09:53N 66°54' E 013°26'1130.0
2017-Apr-17 09:30N 67°02' E 013°46'1530.8
2017-Apr-17 09:01N 67°13' E 014°11'610.6
2017-Apr-17 08:29N 67°17' E 014°22'0 0.0
2017-Apr-17 07:59N 67°17' E 014°22'0 0.0
2017-Apr-17 07:29N 67°17' E 014°22'0 0.0
2017-Apr-17 06:56N 67°17' E 014°22'0 0.0
2017-Apr-17 06:29N 67°17' E 014°22'0 0.0
2017-Apr-17 05:59N 67°17' E 014°22'0 0.0
2017-Apr-17 05:29N 67°17' E 014°22'0 0.0
2017-Apr-17 04:59N 67°17' E 014°22'0 0.0
2017-Apr-17 04:29N 67°17' E 014°22'0 0.0
2017-Apr-17 03:59N 67°17' E 014°22'0 0.0
2017-Apr-17 03:29N 67°17' E 014°22'0 0.0
2017-Apr-17 02:59N 67°17' E 014°22'0 0.0
2017-Apr-17 02:29N 67°17' E 014°22'0 0.0
2017-Apr-17 01:59N 67°17' E 014°22'0 0.0
2017-Apr-17 01:29N 67°17' E 014°22'0 0.0
2017-Apr-17 00:59N 67°17' E 014°22'0 0.0
2017-Apr-17 00:29N 67°17' E 014°22'0 0.0
2017-Apr-16 23:59N 67°17' E 014°22'0 0.0
2017-Apr-16 23:29N 67°17' E 014°22'0 0.0
2017-Apr-16 22:58N 67°17' E 014°22'0 0.0
2017-Apr-16 22:28N 67°17' E 014°22'0 0.0
2017-Apr-16 21:58N 67°17' E 014°22'0 0.0
2017-Apr-16 21:28N 67°17' E 014°22'0 0.0
2017-Apr-16 20:58N 67°17' E 014°22'0 0.0
2017-Apr-16 20:28N 67°17' E 014°22'0 0.0
2017-Apr-16 19:58N 67°17' E 014°22'0 0.0
2017-Apr-16 19:28N 67°17' E 014°22'0 0.0
2017-Apr-16 18:58N 67°17' E 014°22'0 0.0
2017-Apr-16 18:28N 67°17' E 014°22'0 0.0
2017-Apr-16 17:58N 67°17' E 014°22'0 0.0
2017-Apr-16 17:28N 67°17' E 014°22'0 0.0
2017-Apr-16 16:58N 67°17' E 014°22'0 0.0
2017-Apr-16 16:28N 67°17' E 014°22'0 0.0
2017-Apr-16 15:58N 67°17' E 014°22'0 0.0
2017-Apr-16 15:28N 67°17' E 014°22'0 0.0
2017-Apr-16 14:58N 67°17' E 014°22'0 0.0
2017-Apr-16 14:28N 67°17' E 014°22'0 0.0
2017-Apr-16 13:28N 67°17' E 014°22'0 0.0
2017-Apr-16 12:58N 67°17' E 014°22'0 0.0
2017-Apr-16 12:28N 67°17' E 014°22'0 0.0
2017-Apr-16 11:58N 67°17' E 014°22'0 0.0
2017-Apr-16 11:28N 67°17' E 014°22'0 0.0
2017-Apr-16 10:58N 67°17' E 014°22'0 0.0
2017-Apr-16 10:28N 67°17' E 014°22'0 0.0
2017-Apr-16 09:58N 67°17' E 014°22'0 0.0
2017-Apr-16 09:28N 67°17' E 014°22'0 0.0
2017-Apr-16 08:58N 67°17' E 014°22'0 0.0
2017-Apr-16 08:28N 67°17' E 014°22'0 0.0
2017-Apr-16 07:58N 67°17' E 014°22'0 0.0
2017-Apr-16 07:28N 67°17' E 014°22'0 0.0
2017-Apr-16 06:58N 67°17' E 014°22'0 0.0
2017-Apr-16 06:28N 67°17' E 014°22'0 0.0
2017-Apr-16 05:58N 67°17' E 014°22'0 0.0
2017-Apr-16 05:28N 67°17' E 014°22'0 0.0
2017-Apr-16 04:58N 67°17' E 014°22'0 0.0
2017-Apr-16 04:28N 67°17' E 014°22'0 0.0
2017-Apr-16 03:58N 67°17' E 014°22'0 0.0
2017-Apr-16 03:28N 67°17' E 014°22'0 0.0
2017-Apr-16 02:58N 67°17' E 014°22'0 0.0
2017-Apr-16 02:28N 67°17' E 014°22'0 0.0
2017-Apr-16 01:58N 67°17' E 014°22'0 0.0
2017-Apr-16 01:28N 67°17' E 014°22'0 0.0
2017-Apr-16 00:58N 67°17' E 014°22'0 0.0
2017-Apr-16 00:28N 67°17' E 014°22'0 0.0
2017-Apr-15 23:58N 67°17' E 014°22'0 0.0
2017-Apr-15 23:28N 67°17' E 014°22'0 0.0
2017-Apr-15 22:58N 67°17' E 014°22'0 0.0
2017-Apr-15 22:28N 67°17' E 014°22'0 0.0
2017-Apr-15 21:58N 67°17' E 014°22'0 0.0
2017-Apr-15 21:28N 67°17' E 014°22'0 0.0
2017-Apr-15 20:58N 67°17' E 014°22'0 0.0
2017-Apr-15 20:28N 67°17' E 014°22'0 0.0
2017-Apr-15 19:58N 67°17' E 014°22'0 0.0
2017-Apr-15 19:28N 67°17' E 014°22'0 0.0
2017-Apr-15 18:58N 67°17' E 014°22'0 0.0
2017-Apr-15 18:28N 67°17' E 014°22'0 0.0
2017-Apr-15 17:58N 67°17' E 014°22'0 0.0
2017-Apr-15 17:28N 67°17' E 014°22'0 0.0
2017-Apr-15 16:58N 67°17' E 014°22'0 0.0
2017-Apr-15 16:28N 67°17' E 014°22'0 0.0
2017-Apr-15 15:55N 67°17' E 014°22'0 0.0
2017-Apr-15 15:28N 67°17' E 014°22'0 0.0
2017-Apr-15 14:58N 67°17' E 014°22'0 0.0
2017-Apr-15 14:28N 67°17' E 014°22'0 0.0
2017-Apr-15 13:28N 67°17' E 014°22'0 0.0
2017-Apr-15 12:58N 67°17' E 014°22'0 0.0
2017-Apr-15 12:28N 67°17' E 014°22'0 0.0
2017-Apr-15 11:58N 67°17' E 014°22'0 0.0
2017-Apr-15 11:28N 67°17' E 014°22'0 0.0
2017-Apr-15 10:58N 67°17' E 014°22'0 0.0
2017-Apr-15 10:28N 67°17' E 014°22'0 0.0
2017-Apr-15 09:58N 67°17' E 014°22'0 0.0
2017-Apr-15 09:28N 67°17' E 014°22'0 0.0
2017-Apr-15 08:58N 67°17' E 014°22'0 0.0
2017-Apr-15 08:31N 67°17' E 014°22'0 0.0
2017-Apr-15 08:01N 67°17' E 014°22'0 0.0
2017-Apr-15 07:31N 67°17' E 014°22'0 0.0
2017-Apr-15 07:00N 67°17' E 014°22'0 0.0
2017-Apr-15 06:30N 67°17' E 014°22'0 0.0
2017-Apr-15 06:00N 67°17' E 014°22'0 0.0
2017-Apr-15 05:30N 67°17' E 014°22'0 0.0
2017-Apr-15 05:00N 67°17' E 014°22'0 0.0
2017-Apr-15 04:30N 67°17' E 014°22'0 0.0
2017-Apr-15 04:00N 67°17' E 014°22'0 0.0
2017-Apr-15 03:30N 67°17' E 014°22'0 0.0
2017-Apr-15 03:00N 67°17' E 014°22'0 0.0
2017-Apr-15 02:30N 67°17' E 014°22'0 0.0
2017-Apr-15 02:00N 67°17' E 014°22'0 0.0
2017-Apr-15 01:30N 67°17' E 014°22'0 0.0
2017-Apr-15 01:00N 67°17' E 014°22'0 0.0
2017-Apr-15 00:30N 67°17' E 014°22'  
Track history (hours):
 
Tides and Currents Weather Stations Pressure Air Temp Water Temp Dewpoint Dewpoint Depression Visibility Wind Speed Wind Dir Waves Ship Positions

Fjordprinsessen

Last reported at 2017-Apr-25 00:28 UTC. Time now 2017-Apr-25 00:47 UTC.
Position N 67°17' E 014°22'.

Length 30 m.

Type: High speed craft. MMSI: 259604000.

Date/timePositionNaut miles runAvg speedWind from/ knotsBaromVisibWave heightAir tempDewpointWater temp
2017-Apr-25 00:28N 67°17' E 014°22'0 0.0
2017-Apr-24 23:58N 67°17' E 014°22'0 0.0
2017-Apr-24 23:28N 67°17' E 014°22'0 0.0
2017-Apr-24 22:58N 67°17' E 014°22'0 0.0
2017-Apr-24 22:28N 67°17' E 014°22'0 0.0
2017-Apr-24 21:58N 67°17' E 014°22'0 0.0
2017-Apr-24 21:28N 67°17' E 014°22'0 0.0
2017-Apr-24 20:58N 67°17' E 014°22'0 0.0
2017-Apr-24 20:28N 67°17' E 014°22'0 0.0
2017-Apr-24 19:58N 67°17' E 014°22'0 0.0
2017-Apr-24 19:28N 67°17' E 014°22'0 0.0
2017-Apr-24 18:58N 67°17' E 014°22'0 0.0
2017-Apr-24 18:28N 67°17' E 014°22'0 0.0
2017-Apr-24 17:58N 67°17' E 014°22'0 0.0
2017-Apr-24 17:28N 67°17' E 014°22'0 0.0
2017-Apr-24 16:58N 67°17' E 014°22'0 0.5
2017-Apr-24 16:30N 67°17' E 014°23'712.7
2017-Apr-24 15:59N 67°23' E 014°13'1225.7
2017-Apr-24 15:31N 67°18' E 013°43'713.9
2017-Apr-24 14:59N 67°24' E 013°54'816.6
2017-Apr-24 14:30N 67°24' E 014°14'7 7.2
2017-Apr-24 13:30N 67°17' E 014°22'0 0.0
2017-Apr-24 13:00N 67°17' E 014°22'0 0.0
2017-Apr-24 12:30N 67°17' E 014°22'0 0.0
2017-Apr-24 12:00N 67°17' E 014°22'0 0.0
2017-Apr-24 11:30N 67°17' E 014°22'0 0.0
2017-Apr-24 11:00N 67°17' E 014°22'0 0.9
2017-Apr-24 10:30N 67°17' E 014°23'0 0.9
2017-Apr-24 10:01N 67°17' E 014°22'1019.8
2017-Apr-24 09:31N 67°16' E 013°57'815.4
2017-Apr-24 09:00N 67°08' E 013°53'5 9.0
2017-Apr-24 08:31N 67°10' E 014°04'1020.1
2017-Apr-24 08:01N 67°17' E 014°22'0 0.0
2017-Apr-24 07:31N 67°17' E 014°22'0 0.0
2017-Apr-24 07:00N 67°17' E 014°22'0 0.0
2017-Apr-24 06:31N 67°17' E 014°22'0 0.0
2017-Apr-24 06:01N 67°17' E 014°22'0 0.0
2017-Apr-24 05:31N 67°17' E 014°22'0 0.0
2017-Apr-24 05:00N 67°17' E 014°22'918.0
2017-Apr-24 04:31N 67°24' E 014°09'6 0.7
2017-Apr-23 19:38N 67°24' E 013°54'319.7
2017-Apr-23 19:30N 67°25' E 014°01'1223.1
2017-Apr-23 19:00N 67°17' E 014°22'0 0.1
2017-Apr-23 18:30N 67°17' E 014°22'3 6.8
2017-Apr-23 18:01N 67°15' E 014°15'1223.1
2017-Apr-23 17:31N 67°06' E 013°56'1325.2
2017-Apr-23 17:01N 66°58' E 013°32'1111.0
2017-Apr-23 16:01N 66°48' E 013°20'231.4
2017-Apr-23 15:57N 66°48' E 013°15'716.4
2017-Apr-23 15:30N 66°41' E 013°16'1114.5
2017-Apr-23 14:44N 66°33' E 012°57'1214.5
2017-Apr-23 13:55N 66°21' E 012°51'1317.8
2017-Apr-23 13:11N 66°09' E 012°42'16 0.9
2017-Apr-22 18:28N 66°24' E 012°50'1618.9
2017-Apr-22 17:39N 66°39' E 013°02'516.5
2017-Apr-22 17:19N 66°41' E 013°15'1612.4
2017-Apr-22 16:04N 66°54' E 013°38'229.8
2017-Apr-22 15:59N 66°54' E 013°32'4 9.0
2017-Apr-22 15:30N 66°58' E 013°32'918.3
2017-Apr-22 15:00N 67°03' E 013°51'714.1
2017-Apr-22 14:31N 67°09' E 014°02'1111.4
2017-Apr-22 13:31N 67°17' E 014°22'0 0.0
2017-Apr-22 13:00N 67°17' E 014°22'0 0.0
2017-Apr-22 12:30N 67°17' E 014°22'0 0.0
2017-Apr-22 12:00N 67°17' E 014°22'0 0.0
2017-Apr-22 11:31N 67°17' E 014°22'0 0.0
2017-Apr-22 11:00N 67°17' E 014°22'0 0.0
2017-Apr-22 10:30N 67°17' E 014°22'0 0.0
2017-Apr-22 10:00N 67°17' E 014°22'0 0.1
2017-Apr-22 09:31N 67°17' E 014°22'713.0
2017-Apr-22 09:01N 67°22' E 014°13'816.2
2017-Apr-22 08:30N 67°23' E 013°51'5 9.4
2017-Apr-22 08:00N 67°18' E 013°52'917.2
2017-Apr-22 07:31N 67°17' E 014°14'2 4.9
2017-Apr-22 07:01N 67°15' E 014°14'918.4
2017-Apr-22 06:31N 67°08' E 013°58'4 8.9
2017-Apr-22 06:01N 67°11' E 013°51'1326.3
2017-Apr-22 05:30N 67°17' E 014°21'1 0.9
2017-Apr-22 04:58N 67°17' E 014°22'0 0.0
2017-Apr-22 04:28N 67°17' E 014°22'0 0.0
2017-Apr-22 03:58N 67°17' E 014°22'0 0.0
2017-Apr-22 03:28N 67°17' E 014°22'0 0.0
2017-Apr-22 02:58N 67°17' E 014°22'0 0.0
2017-Apr-22 02:31N 67°17' E 014°22'0 0.0
2017-Apr-22 02:01N 67°17' E 014°22'0 0.0
2017-Apr-22 01:31N 67°17' E 014°22'0 0.0
2017-Apr-22 01:00N 67°17' E 014°22'0 0.0
2017-Apr-22 00:30N 67°17' E 014°22'0 0.0
2017-Apr-22 00:00N 67°17' E 014°22'0 0.0
2017-Apr-21 23:30N 67°17' E 014°22'0 0.0
2017-Apr-21 23:00N 67°17' E 014°22'0 0.0
2017-Apr-21 22:30N 67°17' E 014°22'0 0.0
2017-Apr-21 22:00N 67°17' E 014°22'0 0.0
2017-Apr-21 21:30N 67°17' E 014°22'0 0.0
2017-Apr-21 21:00N 67°17' E 014°22'0 0.0
2017-Apr-21 20:30N 67°17' E 014°22'0 0.0
2017-Apr-21 20:00N 67°17' E 014°22'0 0.0
2017-Apr-21 19:30N 67°17' E 014°22'0 0.0
2017-Apr-21 19:00N 67°17' E 014°22'0 0.0
2017-Apr-21 18:30N 67°17' E 014°22'0 0.0
2017-Apr-21 18:00N 67°17' E 014°22'0 0.0
2017-Apr-21 17:30N 67°17' E 014°22'0 0.0
2017-Apr-21 17:00N 67°17' E 014°22'0 0.0
2017-Apr-21 16:30N 67°17' E 014°22'2 4.0
2017-Apr-21 16:01N 67°17' E 014°17'1325.8
2017-Apr-21 15:30N 67°19' E 013°44'712.6
2017-Apr-21 14:57N 67°24' E 013°54'614.7
2017-Apr-21 14:31N 67°24' E 014°11'9 8.5
2017-Apr-21 13:30N 67°17' E 014°22'0 0.0
2017-Apr-21 13:00N 67°17' E 014°22'713.4
2017-Apr-21 12:29N 67°23' E 014°15'816.7
2017-Apr-21 12:00N 67°24' E 013°54'713.2
2017-Apr-21 11:30N 67°24' E 014°11'817.0
2017-Apr-21 11:00N 67°17' E 014°22'0 0.0
2017-Apr-21 10:30N 67°17' E 014°22'0 0.0
2017-Apr-21 10:01N 67°17' E 014°22'0 0.0
2017-Apr-21 09:30N 67°17' E 014°22'0 0.0
2017-Apr-21 09:00N 67°17' E 014°22'0 0.0
2017-Apr-21 08:31N 67°17' E 014°22'0 0.0
2017-Apr-21 08:01N 67°17' E 014°22'0 0.0
2017-Apr-21 07:30N 67°17' E 014°22'0 0.0
2017-Apr-21 07:00N 67°17' E 014°22'0 0.0
2017-Apr-21 06:30N 67°17' E 014°22'0 0.0
2017-Apr-21 06:00N 67°17' E 014°22'0 0.0
2017-Apr-21 05:31N 67°17' E 014°22'1 1.6
2017-Apr-21 05:01N 67°17' E 014°21'1223.2
2017-Apr-21 04:30N 67°07' E 014°03'510.7
2017-Apr-21 04:01N 67°13' E 014°06'815.6
2017-Apr-21 03:30N 67°17' E 014°22'0 0.0
2017-Apr-21 03:00N 67°17' E 014°22'0 0.0
2017-Apr-21 02:30N 67°17' E 014°22'0 0.0
2017-Apr-21 02:00N 67°17' E 014°22'0 0.0
2017-Apr-21 01:30N 67°17' E 014°22'0 0.0
2017-Apr-21 01:00N 67°17' E 014°22'0 0.0
2017-Apr-21 00:30N 67°17' E 014°22'0 0.0
2017-Apr-21 00:00N 67°17' E 014°22'0 0.0
2017-Apr-20 23:30N 67°17' E 014°22'0 0.0
2017-Apr-20 23:00N 67°17' E 014°22'0 0.0
2017-Apr-20 22:30N 67°17' E 014°22'0 0.0
2017-Apr-20 22:00N 67°17' E 014°22'0 0.0
2017-Apr-20 21:30N 67°17' E 014°22'0 0.0
2017-Apr-20 21:00N 67°17' E 014°22'0 0.0
2017-Apr-20 20:30N 67°17' E 014°22'0 0.0
2017-Apr-20 20:00N 67°17' E 014°22'1121.9
2017-Apr-20 19:31N 67°12' E 013°58'4 7.4
2017-Apr-20 19:00N 67°09' E 013°52'4 7.8
2017-Apr-20 18:30N 67°09' E 014°02'1223.1
2017-Apr-20 18:01N 67°17' E 014°22'0 0.1
2017-Apr-20 17:31N 67°17' E 014°22'0 0.0
2017-Apr-20 17:00N 67°17' E 014°22'0 0.0
2017-Apr-20 16:30N 67°17' E 014°22'1 1.6
2017-Apr-20 16:01N 67°18' E 014°22'714.2
2017-Apr-20 15:30N 67°22' E 014°08'610.8
2017-Apr-20 14:58N 67°24' E 013°54'816.6
2017-Apr-20 14:30N 67°24' E 014°14'7 7.3
2017-Apr-20 13:30N 67°17' E 014°22'0 0.0
2017-Apr-20 13:01N 67°17' E 014°22'917.1
2017-Apr-20 12:29N 67°24' E 014°09'611.8
2017-Apr-20 12:00N 67°24' E 013°54'816.2
2017-Apr-20 11:30N 67°23' E 014°15'714.0
2017-Apr-20 11:01N 67°17' E 014°22'1 1.4
2017-Apr-20 10:31N 67°17' E 014°24'1 1.4
2017-Apr-20 10:01N 67°17' E 014°22'1224.2
2017-Apr-20 09:30N 67°11' E 013°55'4 7.5
2017-Apr-20 09:00N 67°08' E 013°58'4 8.4
2017-Apr-20 08:31N 67°12' E 014°04'917.9
2017-Apr-20 08:00N 67°17' E 014°22'0 0.0
2017-Apr-20 07:29N 67°17' E 014°22'0 0.0
2017-Apr-20 06:59N 67°17' E 014°22'0 0.0
2017-Apr-20 06:29N 67°17' E 014°22'0 0.0
2017-Apr-20 05:59N 67°17' E 014°22'0 0.0
2017-Apr-20 05:29N 67°17' E 014°22'0 0.1
2017-Apr-20 05:00N 67°17' E 014°22'1224.6
2017-Apr-20 04:30N 67°07' E 014°03'4 8.0
2017-Apr-20 04:00N 67°11' E 014°06'917.3
2017-Apr-20 03:30N 67°17' E 014°22'0 0.0
2017-Apr-20 03:00N 67°17' E 014°22'0 0.0
2017-Apr-20 02:30N 67°17' E 014°22'0 0.0
2017-Apr-20 02:00N 67°17' E 014°22'0 0.0
2017-Apr-20 01:30N 67°17' E 014°22'0 0.0
2017-Apr-20 01:00N 67°17' E 014°22'0 0.0
2017-Apr-20 00:30N 67°17' E 014°22'0 0.0
2017-Apr-20 00:00N 67°17' E 014°22'0 0.0
2017-Apr-19 23:30N 67°17' E 014°22'0 0.0
2017-Apr-19 23:00N 67°17' E 014°22'0 0.0
2017-Apr-19 22:30N 67°17' E 014°22'0 0.0
2017-Apr-19 22:00N 67°17' E 014°22'0 0.0
2017-Apr-19 21:30N 67°17' E 014°22'0 0.0
2017-Apr-19 21:00N 67°17' E 014°22'0 0.0
2017-Apr-19 20:30N 67°17' E 014°22'0 0.0
2017-Apr-19 20:00N 67°17' E 014°22'917.9
2017-Apr-19 19:31N 67°13' E 014°02'611.2
2017-Apr-19 19:00N 67°10' E 013°51'4 8.9
2017-Apr-19 18:30N 67°08' E 014°02'1224.3
2017-Apr-19 18:00N 67°17' E 014°22'0 0.0
2017-Apr-19 17:30N 67°17' E 014°22'0 0.0
2017-Apr-19 17:00N 67°17' E 014°22'0 0.0
2017-Apr-19 16:30N 67°17' E 014°22'713.3
2017-Apr-19 16:01N 67°22' E 014°11'1122.2
2017-Apr-19 15:30N 67°18' E 013°43'714.6
2017-Apr-19 15:00N 67°24' E 013°54'713.0
2017-Apr-19 14:30N 67°24' E 014°11'8 8.4
2017-Apr-19 13:30N 67°17' E 014°22'0 0.9
2017-Apr-19 13:00N 67°17' E 014°23'0 0.9
2017-Apr-19 12:30N 67°17' E 014°22'0 0.0
2017-Apr-19 12:00N 67°17' E 014°22'0 0.0
2017-Apr-19 06:46N 67°17' E 014°22'0 0.0
2017-Apr-19 06:30N 67°17' E 014°22'0 0.0
2017-Apr-19 06:00N 67°17' E 014°22'0 0.0
2017-Apr-19 05:30N 67°17' E 014°22'1 1.4
2017-Apr-19 05:01N 67°17' E 014°21'1223.4
2017-Apr-19 04:31N 67°07' E 014°03'4 7.6
2017-Apr-19 04:00N 67°11' E 014°05'917.5
2017-Apr-19 03:30N 67°17' E 014°22'0 0.0
2017-Apr-19 03:00N 67°17' E 014°22'0 0.0
2017-Apr-19 02:30N 67°17' E 014°22'0 0.0
2017-Apr-19 02:00N 67°17' E 014°22'0 0.0
2017-Apr-19 01:30N 67°17' E 014°22'0 0.0
2017-Apr-19 01:00N 67°17' E 014°22'0 0.0
2017-Apr-19 00:30N 67°17' E 014°22'0 0.0
2017-Apr-19 00:00N 67°17' E 014°22'0 0.0
2017-Apr-18 23:30N 67°17' E 014°22'0 0.0
2017-Apr-18 23:00N 67°17' E 014°22'0 0.0
2017-Apr-18 22:30N 67°17' E 014°22'0 0.0
2017-Apr-18 22:00N 67°17' E 014°22'0 0.0
2017-Apr-18 21:30N 67°17' E 014°22'0 0.0
2017-Apr-18 21:00N 67°17' E 014°22'0 0.0
2017-Apr-18 20:30N 67°17' E 014°22'0 0.0
2017-Apr-18 19:59N 67°17' E 014°22'0 0.0
2017-Apr-18 19:29N 67°17' E 014°22'0 0.0
2017-Apr-18 18:59N 67°17' E 014°22'0 0.0
2017-Apr-18 18:29N 67°17' E 014°22'0 0.0
2017-Apr-18 17:59N 67°17' E 014°22'0 0.0
2017-Apr-18 17:29N 67°17' E 014°22'0 0.0
2017-Apr-18 16:59N 67°17' E 014°22'1 1.4
2017-Apr-18 16:29N 67°17' E 014°24'613.7
2017-Apr-18 16:00N 67°22' E 014°13'1018.4
2017-Apr-18 15:29N 67°19' E 013°49'6 8.4
2017-Apr-18 14:48N 67°24' E 013°54'621.0
2017-Apr-18 14:30N 67°24' E 014°10'9 8.6
2017-Apr-18 13:30N 67°17' E 014°22'0 0.8
2017-Apr-18 12:58N 67°17' E 014°23'0 0.9
2017-Apr-18 12:30N 67°17' E 014°22'0 0.0
2017-Apr-18 12:00N 67°17' E 014°22'0 0.0
2017-Apr-18 11:30N 67°17' E 014°22'0 0.0
2017-Apr-18 11:00N 67°17' E 014°22'0 0.0
2017-Apr-18 10:30N 67°17' E 014°22'0 0.0
2017-Apr-18 10:00N 67°17' E 014°22'0 0.0
2017-Apr-18 09:30N 67°17' E 014°22'0 0.0
2017-Apr-18 09:00N 67°17' E 014°22'0 0.0
2017-Apr-18 08:30N 67°17' E 014°22'0 0.0
2017-Apr-18 08:00N 67°17' E 014°22'3 6.5
2017-Apr-18 07:31N 67°20' E 014°18'917.0
2017-Apr-18 07:01N 67°25' E 014°01'912.1
2017-Apr-18 06:14N 67°18' E 013°44'210.8
2017-Apr-18 06:01N 67°19' E 013°49'1018.9
2017-Apr-18 05:30N 67°23' E 014°13'713.7
2017-Apr-18 05:01N 67°17' E 014°22'1120.0
2017-Apr-18 04:28N 67°25' E 014°03'3 0.4
2017-Apr-17 20:01N 67°24' E 013°54'917.8
2017-Apr-17 19:31N 67°20' E 014°14'4 7.9
2017-Apr-17 19:01N 67°17' E 014°22'611.1
2017-Apr-17 18:31N 67°22' E 014°13'612.7
2017-Apr-17 18:01N 67°15' E 014°17'1224.7
2017-Apr-17 17:31N 67°06' E 013°56'1224.6
2017-Apr-17 17:00N 66°58' E 013°32'1111.0
2017-Apr-17 16:00N 66°48' E 013°20'713.7
2017-Apr-17 15:29N 66°41' E 013°16'715.1
2017-Apr-17 15:00N 66°38' E 012°60'1515.0
2017-Apr-17 14:00N 66°24' E 012°49'1222.1
2017-Apr-17 13:27N 66°12' E 013°00'8 4.2
2017-Apr-17 11:29N 66°07' E 012°45'1531.6
2017-Apr-17 11:00N 66°21' E 012°57'3430.5
2017-Apr-17 09:53N 66°54' E 013°26'1130.0
2017-Apr-17 09:30N 67°02' E 013°46'1530.8
2017-Apr-17 09:01N 67°13' E 014°11'610.6
2017-Apr-17 08:29N 67°17' E 014°22'0 0.0
2017-Apr-17 07:59N 67°17' E 014°22'0 0.0
2017-Apr-17 07:29N 67°17' E 014°22'0 0.0
2017-Apr-17 06:56N 67°17' E 014°22'0 0.0
2017-Apr-17 06:29N 67°17' E 014°22'0 0.0
2017-Apr-17 05:59N 67°17' E 014°22'0 0.0
2017-Apr-17 05:29N 67°17' E 014°22'0 0.0
2017-Apr-17 04:59N 67°17' E 014°22'0 0.0
2017-Apr-17 04:29N 67°17' E 014°22'0 0.0
2017-Apr-17 03:59N 67°17' E 014°22'0 0.0
2017-Apr-17 03:29N 67°17' E 014°22'0 0.0
2017-Apr-17 02:59N 67°17' E 014°22'0 0.0
2017-Apr-17 02:29N 67°17' E 014°22'0 0.0
2017-Apr-17 01:59N 67°17' E 014°22'0 0.0
2017-Apr-17 01:29N 67°17' E 014°22'0 0.0
2017-Apr-17 00:59N 67°17' E 014°22'0 0.0
2017-Apr-17 00:29N 67°17' E 014°22'0 0.0
2017-Apr-16 23:59N 67°17' E 014°22'0 0.0
2017-Apr-16 23:29N 67°17' E 014°22'0 0.0
2017-Apr-16 22:58N 67°17' E 014°22'0 0.0
2017-Apr-16 22:28N 67°17' E 014°22'0 0.0
2017-Apr-16 21:58N 67°17' E 014°22'0 0.0
2017-Apr-16 21:28N 67°17' E 014°22'0 0.0
2017-Apr-16 20:58N 67°17' E 014°22'0 0.0
2017-Apr-16 20:28N 67°17' E 014°22'0 0.0
2017-Apr-16 19:58N 67°17' E 014°22'0 0.0
2017-Apr-16 19:28N 67°17' E 014°22'0 0.0
2017-Apr-16 18:58N 67°17' E 014°22'0 0.0
2017-Apr-16 18:28N 67°17' E 014°22'0 0.0
2017-Apr-16 17:58N 67°17' E 014°22'0 0.0
2017-Apr-16 17:28N 67°17' E 014°22'0 0.0
2017-Apr-16 16:58N 67°17' E 014°22'0 0.0
2017-Apr-16 16:28N 67°17' E 014°22'0 0.0
2017-Apr-16 15:58N 67°17' E 014°22'0 0.0
2017-Apr-16 15:28N 67°17' E 014°22'0 0.0
2017-Apr-16 14:58N 67°17' E 014°22'0 0.0
2017-Apr-16 14:28N 67°17' E 014°22'0 0.0
2017-Apr-16 13:28N 67°17' E 014°22'0 0.0
2017-Apr-16 12:58N 67°17' E 014°22'0 0.0
2017-Apr-16 12:28N 67°17' E 014°22'0 0.0
2017-Apr-16 11:58N 67°17' E 014°22'0 0.0
2017-Apr-16 11:28N 67°17' E 014°22'0 0.0
2017-Apr-16 10:58N 67°17' E 014°22'0 0.0
2017-Apr-16 10:28N 67°17' E 014°22'0 0.0
2017-Apr-16 09:58N 67°17' E 014°22'0 0.0
2017-Apr-16 09:28N 67°17' E 014°22'0 0.0
2017-Apr-16 08:58N 67°17' E 014°22'0 0.0
2017-Apr-16 08:28N 67°17' E 014°22'0 0.0
2017-Apr-16 07:58N 67°17' E 014°22'0 0.0
2017-Apr-16 07:28N 67°17' E 014°22'0 0.0
2017-Apr-16 06:58N 67°17' E 014°22'0 0.0
2017-Apr-16 06:28N 67°17' E 014°22'0 0.0
2017-Apr-16 05:58N 67°17' E 014°22'0 0.0
2017-Apr-16 05:28N 67°17' E 014°22'0 0.0
2017-Apr-16 04:58N 67°17' E 014°22'0 0.0
2017-Apr-16 04:28N 67°17' E 014°22'0 0.0
2017-Apr-16 03:58N 67°17' E 014°22'0 0.0
2017-Apr-16 03:28N 67°17' E 014°22'0 0.0
2017-Apr-16 02:58N 67°17' E 014°22'0 0.0
2017-Apr-16 02:28N 67°17' E 014°22'0 0.0
2017-Apr-16 01:58N 67°17' E 014°22'0 0.0
2017-Apr-16 01:28N 67°17' E 014°22'0 0.0
2017-Apr-16 00:58N 67°17' E 014°22'0 0.0
2017-Apr-16 00:28N 67°17' E 014°22'0 0.0
2017-Apr-15 23:58N 67°17' E 014°22'0 0.0
2017-Apr-15 23:28N 67°17' E 014°22'0 0.0
2017-Apr-15 22:58N 67°17' E 014°22'0 0.0
2017-Apr-15 22:28N 67°17' E 014°22'0 0.0
2017-Apr-15 21:58N 67°17' E 014°22'0 0.0
2017-Apr-15 21:28N 67°17' E 014°22'0 0.0
2017-Apr-15 20:58N 67°17' E 014°22'0 0.0
2017-Apr-15 20:28N 67°17' E 014°22'0 0.0
2017-Apr-15 19:58N 67°17' E 014°22'0 0.0
2017-Apr-15 19:28N 67°17' E 014°22'0 0.0
2017-Apr-15 18:58N 67°17' E 014°22'0 0.0
2017-Apr-15 18:28N 67°17' E 014°22'0 0.0
2017-Apr-15 17:58N 67°17' E 014°22'0 0.0
2017-Apr-15 17:28N 67°17' E 014°22'0 0.0
2017-Apr-15 16:58N 67°17' E 014°22'0 0.0
2017-Apr-15 16:28N 67°17' E 014°22'0 0.0
2017-Apr-15 15:55N 67°17' E 014°22'0 0.0
2017-Apr-15 15:28N 67°17' E 014°22'0 0.0
2017-Apr-15 14:58N 67°17' E 014°22'0 0.0
2017-Apr-15 14:28N 67°17' E 014°22'0 0.0
2017-Apr-15 13:28N 67°17' E 014°22'0 0.0
2017-Apr-15 12:58N 67°17' E 014°22'0 0.0
2017-Apr-15 12:28N 67°17' E 014°22'0 0.0
2017-Apr-15 11:58N 67°17' E 014°22'0 0.0
2017-Apr-15 11:28N 67°17' E 014°22'0 0.0
2017-Apr-15 10:58N 67°17' E 014°22'0 0.0
2017-Apr-15 10:28N 67°17' E 014°22'0 0.0
2017-Apr-15 09:58N 67°17' E 014°22'0 0.0
2017-Apr-15 09:28N 67°17' E 014°22'0 0.0
2017-Apr-15 08:58N 67°17' E 014°22'0 0.0
2017-Apr-15 08:31N 67°17' E 014°22'0 0.0
2017-Apr-15 08:01N 67°17' E 014°22'0 0.0
2017-Apr-15 07:31N 67°17' E 014°22'0 0.0
2017-Apr-15 07:00N 67°17' E 014°22'0 0.0
2017-Apr-15 06:30N 67°17' E 014°22'0 0.0
2017-Apr-15 06:00N 67°17' E 014°22'0 0.0
2017-Apr-15 05:30N 67°17' E 014°22'0 0.0
2017-Apr-15 05:00N 67°17' E 014°22'0 0.0
2017-Apr-15 04:30N 67°17' E 014°22'0 0.0
2017-Apr-15 04:00N 67°17' E 014°22'0 0.0
2017-Apr-15 03:30N 67°17' E 014°22'0 0.0
2017-Apr-15 03:00N 67°17' E 014°22'0 0.0
2017-Apr-15 02:30N 67°17' E 014°22'0 0.0
2017-Apr-15 02:00N 67°17' E 014°22'0 0.0
2017-Apr-15 01:30N 67°17' E 014°22'0 0.0
2017-Apr-15 01:00N 67°17' E 014°22'0 0.0
2017-Apr-15 00:30N 67°17' E 014°22'  

Dump ship's entire track history